createdAt,value
2023-03-03T00:00:44.263Z,9.18
2023-03-03T00:03:12.344Z,9.00
2023-03-03T00:05:39.833Z,8.88
2023-03-03T00:08:08.562Z,9.35
2023-03-03T00:10:35.958Z,9.75
2023-03-03T00:13:03.408Z,9.35
2023-03-03T00:15:30.920Z,8.02
2023-03-03T00:17:58.291Z,8.65
2023-03-03T00:20:36.418Z,9.13
2023-03-03T00:23:27.468Z,9.52
2023-03-03T00:25:55.632Z,8.63
2023-03-03T00:28:27.946Z,9.27
2023-03-03T00:30:56.122Z,9.13
2023-03-03T00:33:28.885Z,8.57
2023-03-03T00:35:56.972Z,8.95
2023-03-03T00:38:24.505Z,9.27
2023-03-03T00:40:53.669Z,9.27
2023-03-03T00:43:22.036Z,8.75
2023-03-03T00:45:49.695Z,9.50
2023-03-03T00:48:24.933Z,9.10
2023-03-03T00:50:53.032Z,9.25
2023-03-03T00:53:21.140Z,8.60
2023-03-03T00:55:49.433Z,9.30
2023-03-03T00:58:18.452Z,8.48
2023-03-03T01:00:45.847Z,9.15
2023-03-03T01:03:14.925Z,8.32
2023-03-03T01:05:42.343Z,8.52
2023-03-03T01:08:09.724Z,7.95
2023-03-03T01:10:38.332Z,8.85
2023-03-03T01:13:05.819Z,8.52
2023-03-03T01:15:34.574Z,9.23
2023-03-03T01:18:02.119Z,9.10
2023-03-03T01:20:29.511Z,8.52
2023-03-03T01:22:56.890Z,9.23
2023-03-03T01:25:24.278Z,8.77
2023-03-03T01:27:51.649Z,9.38
2023-03-03T01:30:19.117Z,8.77
2023-03-03T01:32:47.791Z,9.82
2023-03-03T01:35:15.189Z,8.48
2023-03-03T01:37:42.572Z,8.77
2023-03-03T01:40:14.769Z,8.25
2023-03-03T01:42:42.141Z,9.35
2023-03-03T01:45:15.724Z,8.95
2023-03-03T01:47:44.006Z,9.52
2023-03-03T01:50:13.705Z,8.90
2023-03-03T01:52:42.152Z,9.65
2023-03-03T01:55:12.954Z,8.95
2023-03-03T01:57:41.515Z,9.23
2023-03-03T02:00:10.873Z,8.60
2023-03-03T02:02:38.262Z,9.20
2023-03-03T02:05:06.421Z,9.43
2023-03-03T02:07:35.133Z,8.55
2023-03-03T02:10:06.956Z,9.05
2023-03-03T02:12:35.569Z,9.20
2023-03-03T02:15:02.961Z,8.95
2023-03-03T02:17:30.332Z,10.00
2023-03-03T02:20:01.084Z,9.70
2023-03-03T02:22:36.049Z,9.38
2023-03-03T02:25:04.978Z,9.57
2023-03-03T02:27:33.674Z,8.60
2023-03-03T02:30:09.946Z,8.68
2023-03-03T02:32:37.411Z,8.43
2023-03-03T02:35:29.821Z,9.05
2023-03-03T02:37:59.072Z,9.27
2023-03-03T02:40:26.594Z,9.67
2023-03-03T02:42:55.291Z,9.00
2023-03-03T02:45:22.745Z,10.10
2023-03-03T02:47:50.644Z,9.25
2023-03-03T02:50:18.208Z,8.65
2023-03-03T02:52:45.576Z,9.02
2023-03-03T02:55:12.966Z,10.15
2023-03-03T02:57:40.385Z,9.00
2023-03-03T03:00:10.766Z,9.23
2023-03-03T03:02:38.147Z,9.25
2023-03-03T03:05:06.045Z,9.43
2023-03-03T03:07:33.455Z,9.00
2023-03-03T03:10:00.932Z,8.18
2023-03-03T03:12:28.317Z,9.20
2023-03-03T03:14:55.698Z,9.07
2023-03-03T03:17:24.383Z,8.55
2023-03-03T03:19:51.865Z,8.65
2023-03-03T03:22:19.482Z,8.32
2023-03-03T03:24:46.875Z,8.95
2023-03-03T03:27:14.251Z,9.48
2023-03-03T03:29:41.747Z,8.93
2023-03-03T03:32:09.165Z,8.65
2023-03-03T03:34:37.848Z,9.40
2023-03-03T03:37:05.222Z,9.13
2023-03-03T03:39:32.600Z,8.95
2023-03-03T03:42:00.027Z,8.38
2023-03-03T03:44:27.796Z,8.23
2023-03-03T03:46:55.198Z,8.40
2023-03-03T03:49:22.567Z,8.55
2023-03-03T03:51:51.273Z,8.70
2023-03-03T03:54:18.660Z,8.80
2023-03-03T03:56:46.036Z,8.57
2023-03-03T03:59:13.392Z,8.13
2023-03-03T04:01:40.757Z,8.57
2023-03-03T04:04:08.118Z,8.50
2023-03-03T04:06:35.810Z,7.97
2023-03-03T04:09:04.618Z,8.02
2023-03-03T04:11:32.083Z,8.82
2023-03-03T04:13:59.455Z,8.88
2023-03-03T04:16:26.845Z,8.25
2023-03-03T04:18:54.257Z,8.07
2023-03-03T04:21:21.631Z,8.07
2023-03-03T04:23:49.013Z,8.20
2023-03-03T04:26:17.700Z,8.07
2023-03-03T04:28:45.562Z,7.97
2023-03-03T04:31:13.026Z,8.20
2023-03-03T04:33:40.434Z,7.32
2023-03-03T04:36:08.008Z,7.90
2023-03-03T04:38:35.374Z,8.32
2023-03-03T04:41:02.745Z,7.93
2023-03-03T04:43:31.445Z,7.93
2023-03-03T04:45:58.890Z,7.00
2023-03-03T04:48:26.299Z,7.60
2023-03-03T04:50:53.666Z,7.35
2023-03-03T04:53:21.124Z,7.60
2023-03-03T04:55:51.058Z,8.00
2023-03-03T04:58:19.133Z,7.97
2023-03-03T05:00:48.015Z,7.43
2023-03-03T05:03:15.379Z,7.75
2023-03-03T05:05:42.840Z,7.38
2023-03-03T05:08:10.203Z,7.55
2023-03-03T05:10:37.587Z,7.80
2023-03-03T05:13:04.979Z,7.20
2023-03-03T05:15:32.353Z,8.25
2023-03-03T05:18:01.022Z,7.05
2023-03-03T05:20:28.396Z,7.20
2023-03-03T05:22:57.163Z,7.28
2023-03-03T05:25:24.587Z,6.88
2023-03-03T05:27:52.001Z,7.13
2023-03-03T05:30:19.456Z,7.28
2023-03-03T05:32:46.864Z,7.13
2023-03-03T05:35:15.557Z,7.13
2023-03-03T05:37:47.125Z,7.13
2023-03-03T05:40:15.215Z,6.88
2023-03-03T05:42:42.696Z,7.03
2023-03-03T05:45:11.034Z,6.10
2023-03-03T05:47:38.464Z,6.50
2023-03-03T05:50:06.362Z,7.35
2023-03-03T05:52:35.084Z,6.57
2023-03-03T05:55:02.462Z,6.57
2023-03-03T05:57:29.870Z,6.72
2023-03-03T05:59:57.267Z,6.57
2023-03-03T06:02:24.672Z,5.90
2023-03-03T06:04:52.054Z,6.47
2023-03-03T06:07:19.460Z,6.07
2023-03-03T06:09:48.157Z,5.93
2023-03-03T06:12:15.620Z,6.60
2023-03-03T06:14:42.986Z,6.47
2023-03-03T06:17:10.711Z,6.40
2023-03-03T06:19:38.331Z,5.82
2023-03-03T06:22:05.713Z,5.40
2023-03-03T06:24:33.092Z,5.53
2023-03-03T06:27:02.040Z,5.90
2023-03-03T06:29:29.718Z,5.90
2023-03-03T06:31:57.219Z,5.97
2023-03-03T06:34:24.679Z,5.90
2023-03-03T06:36:52.181Z,5.55
2023-03-03T06:39:19.547Z,5.38
2023-03-03T06:41:46.946Z,5.90
2023-03-03T06:44:15.627Z,5.82
2023-03-03T06:46:43.006Z,5.18
2023-03-03T06:49:10.375Z,6.07
2023-03-03T06:51:39.771Z,5.10
2023-03-03T06:54:11.285Z,5.35
2023-03-03T06:56:38.831Z,6.45
2023-03-03T06:59:07.614Z,8.05
2023-03-03T07:01:36.978Z,9.57
2023-03-03T07:04:08.770Z,10.10
2023-03-03T07:06:36.163Z,10.57
2023-03-03T07:09:08.953Z,9.68
2023-03-03T07:11:39.508Z,10.13
2023-03-03T07:14:07.031Z,8.82
2023-03-03T07:16:35.726Z,9.02
2023-03-03T07:19:03.935Z,9.75
2023-03-03T07:21:32.657Z,9.30
2023-03-03T07:24:00.249Z,8.77
2023-03-03T07:26:30.718Z,9.25
2023-03-03T07:28:59.549Z,8.88
2023-03-03T07:31:29.424Z,8.35
2023-03-03T07:33:58.156Z,8.52
2023-03-03T07:36:28.580Z,7.97
2023-03-03T07:38:56.456Z,7.35
2023-03-03T07:41:24.305Z,8.10
2023-03-03T07:43:55.006Z,7.43
2023-03-03T07:46:30.906Z,7.65
2023-03-03T07:48:59.964Z,7.50
2023-03-03T07:51:29.004Z,7.97
2023-03-03T07:54:16.871Z,7.82
2023-03-03T07:56:44.678Z,8.13
2023-03-03T07:59:20.998Z,6.75
2023-03-03T08:01:49.686Z,7.03
2023-03-03T08:04:20.861Z,8.02
2023-03-03T08:06:52.923Z,6.90
2023-03-03T08:09:48.041Z,7.03
2023-03-03T08:12:34.981Z,6.93
2023-03-03T08:15:23.049Z,6.90
2023-03-03T08:17:51.324Z,7.07
2023-03-03T08:20:50.353Z,6.50
2023-03-03T08:23:18.674Z,7.00
2023-03-03T08:25:46.168Z,6.32
2023-03-03T08:28:13.982Z,7.18
2023-03-03T08:30:41.743Z,6.65
2023-03-03T08:33:09.140Z,6.80
2023-03-03T08:35:36.569Z,6.70
2023-03-03T08:38:05.812Z,6.25
2023-03-03T08:40:33.410Z,7.00
2023-03-03T08:43:00.907Z,6.60
2023-03-03T08:45:28.291Z,6.45
2023-03-03T08:47:55.951Z,6.88
2023-03-03T08:50:23.371Z,6.15
2023-03-03T08:52:50.920Z,5.95
2023-03-03T08:55:19.836Z,6.07
2023-03-03T08:57:47.240Z,6.72
2023-03-03T09:00:16.216Z,6.07
2023-03-03T09:02:43.611Z,6.18
2023-03-03T09:05:11.898Z,6.05
2023-03-03T09:07:39.378Z,5.97
2023-03-03T09:10:07.775Z,6.22
2023-03-03T09:12:37.354Z,6.40
2023-03-03T09:15:14.397Z,6.20
2023-03-03T09:17:41.790Z,5.95
2023-03-03T09:20:22.416Z,5.53
2023-03-03T09:22:49.843Z,6.07
2023-03-03T09:25:22.842Z,6.18
2023-03-03T09:27:53.335Z,6.05
2023-03-03T09:30:31.193Z,6.40
2023-03-03T09:32:58.572Z,5.93
2023-03-03T09:35:30.791Z,6.00
2023-03-03T09:37:58.185Z,5.75
2023-03-03T09:40:25.417Z,6.22
2023-03-03T09:43:00.566Z,5.38
2023-03-03T09:45:35.619Z,5.57
2023-03-03T09:48:17.010Z,5.65
2023-03-03T09:50:48.984Z,5.70
2023-03-03T09:53:21.529Z,5.82
2023-03-03T09:55:51.423Z,5.20
2023-03-03T09:58:56.726Z,5.97
2023-03-03T10:01:34.209Z,5.60
2023-03-03T10:04:12.077Z,5.55
2023-03-03T10:06:40.363Z,6.47
2023-03-03T10:09:31.726Z,5.68
2023-03-03T10:12:00.659Z,6.30
2023-03-03T10:15:00.289Z,5.65
2023-03-03T10:17:36.560Z,6.22
2023-03-03T10:20:12.539Z,5.22
2023-03-03T10:22:43.033Z,5.93
2023-03-03T10:25:17.927Z,6.68
2023-03-03T10:27:52.272Z,5.60
2023-03-03T10:30:38.392Z,6.00
2023-03-03T10:33:10.111Z,5.43
2023-03-03T10:35:42.717Z,5.80
2023-03-03T10:38:25.768Z,6.15
2023-03-03T10:40:55.470Z,5.72
2023-03-03T10:43:32.180Z,6.50
2023-03-03T10:46:13.595Z,5.35
2023-03-03T10:48:47.498Z,5.85
2023-03-03T10:51:21.799Z,5.90
2023-03-03T10:53:53.321Z,5.82
2023-03-03T10:56:27.440Z,5.45
2023-03-03T10:59:01.062Z,5.60
2023-03-03T11:01:37.005Z,5.35
2023-03-03T11:04:40.251Z,6.13
2023-03-03T11:07:08.647Z,6.38
2023-03-03T11:09:42.395Z,5.22
2023-03-03T11:12:17.452Z,5.00
2023-03-03T11:14:48.955Z,5.50
2023-03-03T11:17:20.149Z,5.60
2023-03-03T11:19:54.385Z,5.35
2023-03-03T11:22:29.433Z,5.20
2023-03-03T11:25:02.361Z,5.28
2023-03-03T11:27:46.309Z,5.32
2023-03-03T11:30:21.342Z,4.68
2023-03-03T11:32:51.819Z,5.10
2023-03-03T11:35:22.563Z,4.93
2023-03-03T11:37:55.716Z,5.40
2023-03-03T11:40:25.625Z,5.15
2023-03-03T11:43:01.252Z,5.20
2023-03-03T11:45:30.699Z,5.75
2023-03-03T11:48:00.882Z,4.88
2023-03-03T11:53:02.151Z,4.55
2023-03-03T11:55:31.675Z,4.78
2023-03-03T11:58:03.012Z,4.25
2023-03-03T12:00:31.365Z,4.38
2023-03-03T12:03:28.897Z,4.70
2023-03-03T12:05:57.962Z,4.47
2023-03-03T12:08:36.217Z,4.78
2023-03-03T12:11:05.846Z,4.22
2023-03-03T12:13:39.176Z,4.45
2023-03-03T12:16:10.011Z,4.80
2023-03-03T12:18:46.460Z,4.07
2023-03-03T12:21:24.173Z,4.22
2023-03-03T12:23:57.866Z,4.03
2023-03-03T12:26:27.933Z,4.05
2023-03-03T12:28:56.391Z,4.35
2023-03-03T12:31:35.125Z,4.57
2023-03-03T12:34:05.432Z,4.03
2023-03-03T12:39:06.822Z,3.85
2023-03-03T12:41:36.778Z,4.40
2023-03-03T12:44:07.618Z,4.05
2023-03-03T12:46:41.844Z,3.85
2023-03-03T12:49:10.656Z,3.78
2023-03-03T12:51:43.866Z,3.70
2023-03-03T12:54:41.504Z,3.50
2023-03-03T12:57:14.912Z,4.28
2023-03-03T12:59:45.340Z,3.67
2023-03-03T13:02:23.228Z,3.78
2023-03-03T13:04:54.369Z,3.30
2023-03-03T13:07:23.686Z,3.83
2023-03-03T13:10:09.117Z,3.47
2023-03-03T13:12:40.297Z,3.20
2023-03-03T13:15:15.953Z,3.63
2023-03-03T13:17:49.429Z,3.10
2023-03-03T13:20:23.123Z,3.42
2023-03-03T13:22:52.107Z,3.80
2023-03-03T13:25:36.090Z,4.32
2023-03-03T13:28:06.047Z,3.70
2023-03-03T13:30:34.768Z,3.53
2023-03-03T13:33:03.921Z,3.40
2023-03-03T13:35:38.867Z,3.00
2023-03-03T13:38:06.369Z,3.80
2023-03-03T13:40:41.823Z,3.50
2023-03-03T13:43:11.614Z,3.58
2023-03-03T13:45:44.560Z,3.45
2023-03-03T13:48:16.479Z,3.67
2023-03-03T13:50:48.091Z,3.97
2023-03-03T13:53:29.572Z,3.58
2023-03-03T13:55:59.992Z,3.65
2023-03-03T13:58:34.332Z,3.35
2023-03-03T14:01:02.755Z,3.15
2023-03-03T14:03:59.013Z,3.25
2023-03-03T14:06:28.338Z,3.53
2023-03-03T14:09:23.003Z,3.60
2023-03-03T14:11:52.249Z,3.45
2023-03-03T14:14:29.241Z,3.60
2023-03-03T14:16:58.110Z,2.97
2023-03-03T14:19:27.413Z,3.30
2023-03-03T14:22:05.566Z,3.70
2023-03-03T14:24:36.374Z,2.92
2023-03-03T14:27:08.020Z,3.33
2023-03-03T14:29:36.250Z,3.30
2023-03-03T14:32:04.179Z,3.50
2023-03-03T14:34:37.098Z,3.67
2023-03-03T14:37:22.975Z,3.38
2023-03-03T14:40:02.686Z,3.63
2023-03-03T14:42:34.906Z,3.22
2023-03-03T14:45:04.567Z,3.20
2023-03-03T14:47:32.032Z,3.78
2023-03-03T14:50:00.223Z,3.53
2023-03-03T14:52:29.884Z,3.50
2023-03-03T14:54:58.206Z,3.60
2023-03-03T14:57:46.041Z,3.60
2023-03-03T15:00:31.121Z,3.85
2023-03-03T15:03:02.973Z,3.55
2023-03-03T15:05:31.245Z,3.42
2023-03-03T15:08:10.061Z,3.75
2023-03-03T15:13:13.676Z,3.88
2023-03-03T15:15:44.339Z,3.90
2023-03-03T15:18:13.280Z,4.10
2023-03-03T15:20:41.965Z,3.75
2023-03-03T15:23:19.545Z,3.95
2023-03-03T15:25:53.780Z,3.80
2023-03-03T15:28:25.884Z,3.97
2023-03-03T15:30:54.506Z,3.85
2023-03-03T15:33:24.070Z,3.30
2023-03-03T15:35:51.833Z,3.50
2023-03-03T15:38:22.582Z,3.85
2023-03-03T15:40:51.176Z,4.15
2023-03-03T15:43:22.041Z,3.90
2023-03-03T15:45:52.574Z,4.35
2023-03-03T15:48:35.421Z,4.28
2023-03-03T15:51:04.575Z,3.70
2023-03-03T15:53:35.940Z,3.95
2023-03-03T15:56:05.701Z,4.03
2023-03-03T15:58:50.979Z,4.05
2023-03-03T16:01:20.879Z,4.32
2023-03-03T16:03:48.712Z,4.22
2023-03-03T16:06:16.256Z,4.63
2023-03-03T16:08:45.792Z,4.50
2023-03-03T16:11:13.502Z,4.53
2023-03-03T16:13:42.875Z,4.55
2023-03-03T16:16:13.105Z,4.47
2023-03-03T16:18:45.093Z,5.18
2023-03-03T16:21:17.746Z,5.25
2023-03-03T16:23:47.168Z,6.00
2023-03-03T16:26:16.911Z,6.20
2023-03-03T16:28:50.939Z,6.20
2023-03-03T16:31:18.492Z,5.88
2023-03-03T16:33:49.606Z,6.60
2023-03-03T16:36:22.278Z,6.65
2023-03-03T16:38:50.798Z,6.82
2023-03-03T16:41:19.838Z,7.50
2023-03-03T16:43:59.803Z,6.93
2023-03-03T16:46:29.951Z,7.47
2023-03-03T16:51:27.431Z,7.93
2023-03-03T16:53:56.422Z,8.20
2023-03-03T16:56:24.149Z,8.18
2023-03-03T16:58:55.126Z,8.35
2023-03-03T17:01:23.591Z,7.88
2023-03-03T17:03:57.343Z,8.18
2023-03-03T17:06:27.592Z,9.15
2023-03-03T17:11:25.817Z,9.52
2023-03-03T17:13:55.813Z,11.23
2023-03-03T17:16:23.414Z,10.75
2023-03-03T17:18:53.562Z,10.05
2023-03-03T17:23:52.683Z,11.07
2023-03-03T17:26:26.909Z,11.27
2023-03-03T17:28:57.175Z,11.65
2023-03-03T17:31:25.529Z,11.60
2023-03-03T17:33:57.279Z,11.73
2023-03-03T17:36:27.492Z,12.15
2023-03-03T17:41:22.541Z,10.98
2023-03-03T17:43:53.084Z,12.38
2023-03-03T17:46:23.525Z,12.25
2023-03-03T17:49:09.476Z,12.00
2023-03-03T17:51:39.882Z,12.32
2023-03-03T17:54:21.988Z,12.40
2023-03-03T17:56:50.416Z,11.70
2023-03-03T17:59:22.056Z,12.40
2023-03-03T18:01:51.692Z,12.10
2023-03-03T18:04:36.627Z,8.70
2023-03-03T18:07:16.640Z,11.52
2023-03-03T18:09:47.548Z,11.77
2023-03-03T18:12:16.068Z,11.50
2023-03-03T18:15:01.202Z,11.00
2023-03-03T18:17:40.467Z,11.27
2023-03-03T18:20:34.593Z,10.70
2023-03-03T18:23:19.907Z,10.93
2023-03-03T18:25:55.071Z,11.90
2023-03-03T18:28:22.660Z,10.20
2023-03-03T18:30:54.323Z,11.07
2023-03-03T18:33:33.330Z,10.75
2023-03-03T18:36:08.827Z,11.40
2023-03-03T18:38:46.087Z,10.60
2023-03-03T18:41:13.429Z,10.30
2023-03-03T18:43:41.562Z,10.73
2023-03-03T18:46:09.091Z,10.32
2023-03-03T18:48:50.827Z,10.45
2023-03-03T18:51:38.862Z,10.50
2023-03-03T18:54:07.020Z,10.75
2023-03-03T18:56:43.169Z,10.05
2023-03-03T18:59:10.369Z,10.57
2023-03-03T19:01:42.739Z,11.07
2023-03-03T19:04:21.268Z,10.15
2023-03-03T19:07:09.867Z,9.63
2023-03-03T19:09:52.416Z,10.40
2023-03-03T19:12:19.669Z,11.13
2023-03-03T19:14:47.245Z,10.68
2023-03-03T19:17:33.409Z,11.30
2023-03-03T19:20:03.272Z,11.95
2023-03-03T19:22:30.771Z,13.02
2023-03-03T19:25:17.270Z,11.80
2023-03-03T19:27:44.638Z,13.27
2023-03-03T19:30:20.813Z,12.70
2023-03-03T19:33:02.946Z,14.55
2023-03-03T19:35:33.931Z,14.32
2023-03-03T19:38:03.399Z,14.32
2023-03-03T19:40:32.123Z,14.50
2023-03-03T19:43:01.827Z,14.75
2023-03-03T19:45:31.640Z,14.60
2023-03-03T19:48:01.442Z,14.50
2023-03-03T19:50:35.885Z,15.73
2023-03-03T19:53:05.682Z,15.35
2023-03-03T19:55:35.509Z,15.50
2023-03-03T19:58:07.601Z,15.55
2023-03-03T20:00:36.089Z,15.90
2023-03-03T20:03:09.821Z,15.50
2023-03-03T20:05:39.497Z,15.55
2023-03-03T20:08:08.570Z,17.55
2023-03-03T20:10:39.940Z,17.30
2023-03-03T20:13:09.577Z,16.90
2023-03-03T20:15:41.075Z,16.00
2023-03-03T20:18:14.045Z,16.15
2023-03-03T20:20:57.812Z,17.92
2023-03-03T20:23:26.237Z,17.58
2023-03-03T20:25:53.995Z,17.05
2023-03-03T20:28:27.534Z,17.38
2023-03-03T20:30:57.234Z,17.15
2023-03-03T20:33:27.945Z,16.98
2023-03-03T20:35:57.255Z,16.38
2023-03-03T20:38:27.845Z,15.35
2023-03-03T20:40:56.625Z,15.88
2023-03-03T20:43:27.257Z,15.63
2023-03-03T20:45:56.628Z,16.02
2023-03-03T20:48:27.495Z,15.18
2023-03-03T20:50:56.078Z,15.63
2023-03-03T20:53:26.646Z,14.80
2023-03-03T20:55:57.361Z,14.70
2023-03-03T20:58:25.709Z,15.25
2023-03-03T21:00:53.895Z,13.63
2023-03-03T21:03:22.076Z,14.63
2023-03-03T21:05:56.434Z,14.80
2023-03-03T21:08:31.528Z,13.82
2023-03-03T21:10:58.716Z,13.98
2023-03-03T21:13:26.885Z,14.05
2023-03-03T21:15:57.204Z,13.18
2023-03-03T21:18:24.717Z,13.30
2023-03-03T21:20:51.928Z,12.88
2023-03-03T21:23:20.896Z,14.07
2023-03-03T21:25:51.989Z,13.25
2023-03-03T21:28:20.103Z,13.63
2023-03-03T21:31:00.461Z,13.30
2023-03-03T21:33:40.641Z,12.90
2023-03-03T21:38:35.255Z,12.57
2023-03-03T21:41:03.768Z,12.88
2023-03-03T21:43:33.965Z,12.82
2023-03-03T21:48:28.316Z,12.05
2023-03-03T21:50:55.494Z,12.68
2023-03-03T21:53:23.645Z,13.20
2023-03-03T21:55:50.890Z,12.35
2023-03-03T21:58:19.398Z,12.38
2023-03-03T22:00:46.623Z,12.38
2023-03-03T22:03:15.200Z,11.65
2023-03-03T22:05:42.457Z,12.02
2023-03-03T22:08:09.647Z,11.68
2023-03-03T22:10:36.835Z,11.10
2023-03-03T22:13:04.077Z,11.43
2023-03-03T22:15:33.753Z,11.30
2023-03-03T22:18:01.008Z,10.82
2023-03-03T22:20:28.198Z,10.88
2023-03-03T22:22:55.382Z,10.80
2023-03-03T22:25:22.600Z,10.68
2023-03-03T22:27:49.792Z,11.00
2023-03-03T22:30:17.277Z,10.93
2023-03-03T22:32:45.791Z,10.30
2023-03-03T22:35:13.024Z,11.30
2023-03-03T22:37:40.282Z,11.32
2023-03-03T22:40:08.058Z,10.90
2023-03-03T22:42:35.281Z,10.50
2023-03-03T22:45:02.483Z,10.63
2023-03-03T22:47:29.680Z,10.02
2023-03-03T22:49:58.182Z,10.30
2023-03-03T22:52:25.380Z,10.05
2023-03-03T22:54:52.586Z,10.75
2023-03-03T22:57:19.775Z,9.95
2023-03-03T22:59:46.983Z,10.73
2023-03-03T23:02:14.182Z,9.52
2023-03-03T23:04:41.455Z,9.30
2023-03-03T23:07:09.978Z,9.75
2023-03-03T23:09:37.214Z,9.30
2023-03-03T23:12:04.548Z,9.60
2023-03-03T23:14:31.747Z,10.10
2023-03-03T23:16:58.930Z,9.90
2023-03-03T23:19:26.125Z,9.32
2023-03-03T23:21:53.303Z,10.27
2023-03-03T23:24:21.799Z,8.73
2023-03-03T23:26:51.655Z,8.52
2023-03-03T23:29:18.974Z,8.90
2023-03-03T23:31:46.261Z,9.15
2023-03-03T23:34:13.470Z,8.63
2023-03-03T23:36:40.671Z,9.00
2023-03-03T23:39:07.929Z,9.60
2023-03-03T23:41:38.244Z,8.70
2023-03-03T23:44:05.448Z,8.48
2023-03-03T23:46:32.662Z,8.52
2023-03-03T23:49:01.927Z,8.43
2023-03-03T23:51:29.135Z,5.43
2023-03-03T23:53:56.322Z,7.95
2023-03-03T23:56:23.534Z,8.38
2023-03-03T23:58:52.049Z,7.93
